KOFF

Offutt AFB Airport

Omaha, Nebraska, USA
METAR KOFF 230556Z AUTO 00000KT 10SM CLR 05/04 A3025 RMK AO2 SLP249 T00480041 10161 20048 402150044 52012 $
Observed Flight Rules
Oct-23 @ 05:56 UTC (18 minutes ago) Visual Flight Rules
Visibility Clouds
10 miles
  • Clear skies
Temperatures Readings
Current 5°C / 41°F
Dewpoint 4°C / 39°F
Humidity 93%
Altimeter 30.25" Hg
Pressure 1024.9 hPa
Elevation 319
METAR KOFF 230556Z AUTO 00000KT 10SM CLR 05/04 A3025 RMK AO2 SLP249 T00480041 10161 20048 402150044 52012 $
Observed Flight Rules
Oct-23 @ 05:56 UTC
(18 minutes ago)
VFR
Clouds
  • Clear skies
Temperature Dewpoint
5°C / 41°F 4°C / 39°F
Humidity Altimeter Pressure
93% 30.25" Hg 1024.9 hPa